Time;durP1;ratioP1;P1;durP2;ratioP2;P2;SDS_P1;SDS_P2;PMS_P1;PMS_P2;Temp;Humidity;BMP_temperature;BMP_pressure;BME280_temperature;BME280_humidity;BME280_pressure;Samples;Min_cycle;Max_cycle;Signal;HPM_P1;HPM_P2
2021/08/01 00:01:51;;;;;;;;;3.00;3.00;;;;;19.44;52.73;100864.44;4774914;29;45393;-85
2021/08/01 00:04:17;;;;;;;;;4.00;4.00;;;;;19.52;52.73;100881.19;4790844;29;45707;-85
2021/08/01 00:06:42;;;;;;;;;6.00;5.00;;;;;19.47;52.52;100880.41;4791153;29;45467;-85
2021/08/01 00:09:07;;;;;;;;;5.33;5.33;;;;;19.46;52.75;100878.63;4790963;29;45493;-85
2021/08/01 00:11:33;;;;;;;;;6.00;5.00;;;;;19.46;52.95;100891.94;4790879;29;45340;-84
2021/08/01 00:13:58;;;;;;;;;8.00;5.00;;;;;19.44;52.77;100889.31;4790415;29;45408;-84
2021/08/01 00:16:24;;;;;;;;;3.67;3.67;;;;;19.43;52.91;100884.03;4790710;29;45329;-85
2021/08/01 00:18:49;;;;;;;;;8.00;5.00;;;;;19.31;52.66;100866.47;4774183;29;48107;-85
2021/08/01 00:21:15;;;;;;;;;5.00;4.00;;;;;19.38;52.96;100888.53;4790474;29;45381;-85
2021/08/01 00:23:40;;;;;;;;;4.00;4.00;;;;;19.31;52.90;100877.13;4789616;29;45483;-85
2021/08/01 00:26:06;;;;;;;;;6.67;5.00;;;;;19.33;53.21;100883.31;4789843;29;45417;-85
2021/08/01 00:28:31;;;;;;;;;5.00;5.00;;;;;19.25;52.95;100874.56;4789675;29;45400;-85
2021/08/01 00:30:59;;;;;;;;;5.33;5.00;;;;;19.31;53.23;100883.31;4789822;29;45457;-85
2021/08/01 00:33:25;;;;;;;;;5.67;4.67;;;;;19.28;53.43;100891.38;4789808;29;45485;-85
2021/08/01 00:35:50;;;;;;;;;6.00;6.00;;;;;19.25;53.03;100894.06;4789690;29;45247;-85
2021/08/01 00:38:15;;;;;;;;;8.33;4.33;;;;;19.17;53.58;100880.88;4789427;29;46037;-85
2021/08/01 00:40:41;;;;;;;;;6.00;3.67;;;;;19.17;53.32;100888.00;4789794;29;45517;-85
2021/08/01 00:43:06;;;;;;;;;3.67;3.67;;;;;19.17;53.47;100898.66;4789938;29;45419;-84
2021/08/01 00:45:35;;;;;;;;;4.67;4.67;;;;;19.05;53.76;100873.06;4790045;29;45441;-84
2021/08/01 00:48:01;;;;;;;;;4.33;4.33;;;;;19.09;53.57;100894.31;4789368;29;45452;-85
2021/08/01 00:50:27;;;;;;;;;7.33;5.00;;;;;19.08;53.87;100891.66;4789450;29;45370;-85
2021/08/01 00:52:53;;;;;;;;;2.67;2.67;;;;;19.01;53.70;100882.88;4789570;29;45335;-84
2021/08/01 00:55:19;;;;;;;;;7.33;5.00;;;;;19.02;53.88;100889.97;4789917;29;45330;-84
2021/08/01 00:57:44;;;;;;;;;6.67;4.00;;;;;19.02;53.87;100887.28;4789344;29;46353;-85
2021/08/01 01:00:17;;;;;;;;;4.33;3.00;;;;;19.01;53.70;100884.66;4796024;29;45370;-84
2021/08/01 01:02:47;;;;;;;;;4.33;4.33;;;;;18.94;53.93;100883.88;4800288;29;45266;-83
2021/08/01 01:05:27;;;;;;;;;4.00;3.67;;;;;18.90;54.02;100883.03;4807500;29;44758;-84
2021/08/01 01:08:08;;;;;;;;;6.67;5.00;;;;;18.93;54.23;100888.31;4799031;29;46811;-85
2021/08/01 01:10:46;;;;;;;;;6.33;4.67;;;;;18.93;54.09;100895.44;4790865;29;45278;-85
2021/08/01 01:13:20;;;;;;;;;5.67;5.00;;;;;18.90;54.08;100895.47;4791766;29;45455;-84
2021/08/01 01:15:48;;;;;;;;;5.33;5.33;;;;;18.89;54.40;100896.41;4789727;29;45539;-85
2021/08/01 01:18:17;;;;;;;;;5.00;3.67;;;;;18.89;54.39;100901.72;4791985;29;45433;-84
2021/08/01 01:21:13;;;;;;;;;10.67;6.00;;;;;18.84;54.19;100888.47;4792387;29;45485;-84
2021/08/01 01:23:50;;;;;;;;;5.67;4.00;;;;;18.82;54.43;100882.28;4792175;29;45348;-85
2021/08/01 01:26:24;;;;;;;;;3.00;3.00;;;;;18.88;54.21;100887.53;4791682;29;45410;-84
2021/08/01 01:29:05;;;;;;;;;3.00;3.00;;;;;18.84;54.28;100883.13;4791740;29;46329;-86
2021/08/01 01:31:45;;;;;;;;;3.67;2.67;;;;;18.87;54.54;100888.41;4790060;29;45420;-86
2021/08/01 01:34:17;;;;;;;;;3.67;3.67;;;;;18.89;54.48;100896.41;4789799;29;45329;-85
2021/08/01 01:36:46;;;;;;;;;4.33;4.33;;;;;18.88;54.72;100897.28;4791544;29;45267;-86
2021/08/01 01:39:13;;;;;;;;;4.67;3.33;;;;;18.85;54.66;100887.53;4792292;29;45242;-86
2021/08/01 01:41:45;;;;;;;;;2.67;2.67;;;;;18.89;54.78;100896.41;4792442;29;45283;-85
2021/08/01 01:44:11;;;;;;;;;5.00;4.00;;;;;18.83;54.60;100894.69;4775594;29;45405;-85
2021/08/01 01:46:37;;;;;;;;;5.33;3.67;;;;;18.88;54.39;100895.50;4792306;29;45371;-85
2021/08/01 01:49:09;;;;;;;;;3.00;3.00;;;;;18.89;54.72;100897.25;4791791;29;46583;-85
2021/08/01 01:51:35;;;;;;;;;4.67;3.33;;;;;18.83;54.66;100882.25;4791914;29;45412;-85
2021/08/01 01:54:02;;;;;;;;;2.67;2.67;;;;;18.90;54.71;100895.47;4791826;29;45249;-85
2021/08/01 01:56:30;;;;;;;;;4.67;4.00;;;;;18.89;54.80;100891.06;4792274;29;45504;-85
2021/08/01 01:58:57;;;;;;;;;3.67;2.67;;;;;18.85;54.25;100880.44;4791869;29;46065;-85
2021/08/01 02:01:22;;;;;;;;;4.33;3.67;;;;;18.89;54.68;100889.25;4791935;29;45406;-86
2021/08/01 02:03:50;;;;;;;;;4.67;3.67;;;;;18.89;54.47;100886.59;4792129;29;45405;-85
2021/08/01 02:06:16;;;;;;;;;2.33;2.33;;;;;18.83;54.78;100871.59;4790537;29;45462;-84
2021/08/01 02:08:54;;;;;;;;;1.67;1.67;;;;;18.89;54.28;100883.06;4791433;29;46213;-84
2021/08/01 02:11:27;;;;;;;;;4.00;4.00;;;;;18.82;54.38;100877.84;4791795;29;45179;-84
2021/08/01 02:14:18;;;;;;;;;2.00;2.00;;;;;18.88;54.59;100884.84;4791898;29;45287;-84
2021/08/01 02:16:47;;;;;;;;;5.00;3.00;;;;;18.88;54.70;100878.63;4791681;29;45440;-85
2021/08/01 02:19:14;;;;;;;;;2.67;2.67;;;;;18.82;54.88;100875.19;4791423;29;45645;-84
2021/08/01 02:21:42;;;;;;;;;3.00;2.67;;;;;18.88;54.45;100875.97;4791535;29;45320;-83
2021/08/01 02:24:09;;;;;;;;;2.67;2.67;;;;;18.79;54.67;100864.56;4791541;29;45380;-85
2021/08/01 02:26:38;;;;;;;;;4.33;4.00;;;;;18.90;54.62;100874.16;4775501;29;45439;-85
2021/08/01 02:29:05;;;;;;;;;1.67;1.67;;;;;18.88;54.69;100883.97;4774663;29;47288;-85
2021/08/01 02:31:32;;;;;;;;;5.00;4.00;;;;;18.88;54.63;100891.97;4791417;29;45417;-85
2021/08/01 02:33:57;;;;;;;;;3.33;3.33;;;;;18.88;54.53;100884.84;4791513;29;45439;-86
2021/08/01 02:36:24;;;;;;;;;2.33;2.33;;;;;18.83;54.84;100874.25;4791307;29;45481;-85
2021/08/01 02:38:57;;;;;;;;;4.67;3.33;;;;;18.85;55.03;100875.13;4791312;29;46348;-86
2021/08/01 02:41:30;;;;;;;;;6.67;3.67;;;;;18.88;54.59;100879.53;4774692;29;46109;-85
2021/08/01 02:43:59;;;;;;;;;5.00;3.33;;;;;18.82;54.92;100863.63;4774682;29;45442;-86
2021/08/01 02:46:28;;;;;;;;;5.67;5.33;;;;;18.86;54.88;100876.91;4774532;29;45350;-85
2021/08/01 02:48:56;;;;;;;;;3.67;3.67;;;;;18.79;54.89;100851.25;4790406;29;45377;-85
2021/08/01 02:51:21;;;;;;;;;3.67;3.67;;;;;18.84;55.19;100870.72;4791245;29;45442;-85
2021/08/01 02:53:52;;;;;;;;;3.67;3.33;;;;;18.79;54.84;100869.88;4791416;29;45457;-84
2021/08/01 02:56:22;;;;;;;;;6.67;4.33;;;;;18.80;54.81;100868.09;4791491;29;45466;-84
2021/08/01 02:58:49;;;;;;;;;4.00;4.00;;;;;18.77;55.13;100871.69;4791141;29;45713;-84
2021/08/01 03:01:16;;;;;;;;;5.67;3.67;;;;;18.74;55.30;100867.28;4790943;29;45349;-84
2021/08/01 03:03:43;;;;;;;;;7.00;5.00;;;;;18.76;55.45;100875.28;4791173;29;45348;-85
2021/08/01 03:06:10;;;;;;;;;3.00;3.00;;;;;18.68;55.25;100875.34;4790987;29;45334;-84
2021/08/01 03:08:36;;;;;;;;;6.00;3.33;;;;;18.67;55.24;100876.28;4790488;29;46679;-84
2021/08/01 03:11:01;;;;;;;;;3.00;3.00;;;;;18.70;55.45;100885.97;4790882;29;45481;-85
2021/08/01 03:13:27;;;;;;;;;5.00;5.00;;;;;18.66;55.37;100874.50;4790661;29;45989;-84
2021/08/01 03:15:53;;;;;;;;;4.33;3.00;;;;;18.67;55.74;100884.28;4790829;29;45591;-84
2021/08/01 03:18:19;;;;;;;;;4.50;3.50;;;;;18.59;55.77;100871.03;4790820;29;45978;-85
2021/08/01 03:20:44;;;;;;;;;3.67;3.00;;;;;18.59;55.71;100879.03;4790715;29;45402;-84
2021/08/01 03:23:10;;;;;;;;;5.33;3.67;;;;;18.59;55.84;100878.16;4790768;29;45445;-84
2021/08/01 03:25:36;;;;;;;;;5.00;4.33;;;;;18.55;55.70;100871.97;4790871;29;45413;-84
2021/08/01 03:28:02;;;;;;;;;6.67;5.00;;;;;18.55;55.58;100876.44;4790288;29;45447;-84
2021/08/01 03:30:28;;;;;;;;;6.67;4.67;;;;;18.52;55.87;100878.25;4774053;29;45282;-84
2021/08/01 03:32:53;;;;;;;;;7.00;4.00;;;;;18.50;55.68;100879.16;4790649;29;45224;-84
2021/08/01 03:35:20;;;;;;;;;3.33;3.33;;;;;18.44;56.09;100865.94;4790975;29;45223;-84
2021/08/01 03:37:46;;;;;;;;;3.00;3.00;;;;;18.40;55.87;100863.31;4790050;29;45675;-84
2021/08/01 03:40:13;;;;;;;;;6.33;4.00;;;;;18.46;55.97;100872.13;4790467;29;45339;-84
2021/08/01 03:42:38;;;;;;;;;6.00;4.67;;;;;18.44;55.99;100877.47;4790226;29;45336;-84
2021/08/01 03:45:06;;;;;;;;;5.00;4.00;;;;;18.39;55.94;100874.88;4790747;29;45361;-83
2021/08/01 03:47:32;;;;;;;;;3.33;3.00;;;;;18.40;56.12;100873.94;4790238;29;45467;-84
2021/08/01 03:49:57;;;;;;;;;4.00;4.00;;;;;18.37;55.82;100882.00;4790186;29;45230;-84
2021/08/01 03:52:22;;;;;;;;;5.00;4.00;;;;;18.31;56.16;100874.09;4790305;29;45367;-85
2021/08/01 03:54:48;;;;;;;;;5.00;5.00;;;;;18.30;56.01;100882.94;4790598;29;45287;-84
2021/08/01 03:57:13;;;;;;;;;4.33;3.00;;;;;18.32;56.09;100881.16;4790155;29;45956;-83
2021/08/01 03:59:39;;;;;;;;;4.00;3.00;;;;;18.30;56.16;100874.97;4790040;29;45394;-86
2021/08/01 04:02:04;;;;;;;;;5.33;3.33;;;;;18.31;56.17;100878.53;4790256;29;45487;-85
2021/08/01 04:04:30;;;;;;;;;3.00;3.00;;;;;18.29;56.18;100875.88;4774101;29;45294;-85
2021/08/01 04:06:55;;;;;;;;;2.67;2.67;;;;;18.28;56.25;100859.03;4790030;29;46375;-85
2021/08/01 04:09:21;;;;;;;;;5.33;4.00;;;;;18.28;56.28;100866.13;4789952;29;45354;-85
2021/08/01 04:11:47;;;;;;;;;4.33;4.33;;;;;18.25;56.41;100863.53;4790166;29;45365;-85
2021/08/01 04:14:12;;;;;;;;;8.00;6.00;;;;;18.21;56.53;100864.47;4773809;29;45545;-85
2021/08/01 04:16:37;;;;;;;;;4.33;3.33;;;;;18.21;56.85;100861.81;4788488;29;47124;-85
2021/08/01 04:19:11;;;;;;;;;3.00;3.00;;;;;18.25;56.74;100874.16;4789956;29;45417;-84
2021/08/01 04:21:38;;;;;;;;;4.67;3.00;;;;;18.22;56.67;100871.53;4790010;29;45490;-86
2021/08/01 04:24:03;;;;;;;;;4.00;4.00;;;;;18.23;56.53;100871.50;4773466;29;45353;-86
2021/08/01 04:26:29;;;;;;;;;4.00;2.33;;;;;18.13;56.56;100857.41;4789517;29;46436;-85
2021/08/01 04:28:54;;;;;;;;;7.00;4.67;;;;;18.11;56.69;100866.31;4789496;29;45507;-85
2021/08/01 04:31:20;;;;;;;;;4.00;4.00;;;;;18.17;56.85;100876.91;4789978;29;45771;-85
2021/08/01 04:33:45;;;;;;;;;4.67;4.00;;;;;18.17;56.79;100883.09;4789790;29;45396;-85
2021/08/01 04:36:10;;;;;;;;;6.67;4.00;;;;;18.10;56.89;100870.75;4789763;29;45298;-85
2021/08/01 04:38:36;;;;;;;;;5.33;4.00;;;;;18.05;56.93;100868.16;4789392;29;45340;-85
2021/08/01 04:41:02;;;;;;;;;4.00;3.00;;;;;18.04;57.04;100866.38;4789549;29;45396;-85
2021/08/01 04:43:27;;;;;;;;;5.67;4.67;;;;;18.06;57.08;100869.91;4789709;29;45287;-85
2021/08/01 04:45:52;;;;;;;;;8.00;4.00;;;;;18.08;56.94;100879.66;4789336;29;45467;-84
2021/08/01 04:48:18;;;;;;;;;6.00;4.00;;;;;17.93;57.16;100852.34;4789553;29;45805;-85
2021/08/01 04:50:43;;;;;;;;;2.00;2.00;;;;;17.99;57.11;100862.91;4789806;29;45448;-85
2021/08/01 04:53:08;;;;;;;;;3.00;3.00;;;;;18.00;57.03;100863.78;4789587;29;45727;-85
2021/08/01 04:55:34;;;;;;;;;6.00;4.00;;;;;18.03;57.27;100883.25;4789463;29;45724;-85
2021/08/01 04:58:03;;;;;;;;;3.67;3.67;;;;;17.96;57.34;100865.59;4789273;29;45674;-85
2021/08/01 05:00:29;;;;;;;;;5.00;3.00;;;;;17.96;57.31;100872.69;4789404;29;45450;-85
2021/08/01 05:02:57;;;;;;;;;5.00;3.00;;;;;17.96;57.56;100878.88;4789484;29;45350;-85
2021/08/01 05:05:23;;;;;;;;;5.33;4.00;;;;;17.92;57.44;100870.06;4789302;29;45401;-85
2021/08/01 05:07:48;;;;;;;;;3.00;3.00;;;;;17.94;57.19;100883.34;4789307;29;45225;-85
2021/08/01 05:10:14;;;;;;;;;3.33;2.67;;;;;17.92;57.16;100878.03;4788632;29;45558;-84
2021/08/01 05:12:39;;;;;;;;;4.00;4.00;;;;;17.87;57.59;100879.88;4789561;29;45284;-85
2021/08/01 05:15:06;;;;;;;;;4.00;3.00;;;;;17.87;57.42;100879.88;4788914;29;46091;-86
2021/08/01 05:17:31;;;;;;;;;5.00;3.00;;;;;17.86;57.51;100877.22;4789103;29;45504;-86
2021/08/01 05:19:57;;;;;;;;;3.67;2.67;;;;;17.82;57.60;100871.06;4789204;29;45411;-85
2021/08/01 05:22:22;;;;;;;;;5.33;3.33;;;;;17.85;57.84;100873.72;4789395;29;45480;-86
2021/08/01 05:24:47;;;;;;;;;5.33;4.33;;;;;17.85;57.85;100878.13;4789155;29;46013;-86
2021/08/01 05:27:13;;;;;;;;;3.67;3.67;;;;;17.85;57.84;100876.38;4789102;29;45342;-85
2021/08/01 05:29:38;;;;;;;;;3.00;3.00;;;;;17.81;57.96;100877.25;4789330;29;45922;-85
2021/08/01 05:32:04;;;;;;;;;5.33;4.00;;;;;17.85;58.10;100888.78;4789645;29;45512;-85
2021/08/01 05:34:30;;;;;;;;;4.67;3.00;;;;;17.82;58.33;100879.03;4789428;29;45446;-85
2021/08/01 05:36:56;;;;;;;;;4.33;4.00;;;;;17.78;58.32;100878.19;4788620;29;45270;-85
2021/08/01 05:39:21;;;;;;;;;2.67;2.67;;;;;17.78;58.38;100878.19;4789163;29;45232;-86
2021/08/01 05:41:47;;;;;;;;;8.00;4.67;;;;;17.82;58.50;100881.69;4789346;29;45256;-84
2021/08/01 05:44:12;;;;;;;;;5.00;3.33;;;;;17.77;58.41;100873.75;4789056;29;46194;-85
2021/08/01 05:46:37;;;;;;;;;5.67;4.00;;;;;17.76;58.36;100873.78;4788687;29;45341;-85
2021/08/01 05:49:03;;;;;;;;;5.00;4.00;;;;;17.73;58.43;100880.00;4788924;29;45470;-85
2021/08/01 05:51:28;;;;;;;;;5.33;3.00;;;;;17.76;58.64;100889.75;4789316;29;45445;-85
2021/08/01 05:53:53;;;;;;;;;3.00;3.00;;;;;17.69;58.48;100878.28;4788840;29;45536;-85
2021/08/01 05:56:19;;;;;;;;;3.33;3.00;;;;;17.75;58.86;100890.63;4789494;29;45197;-85
2021/08/01 05:58:44;;;;;;;;;4.00;3.00;;;;;17.67;58.71;100878.31;4789962;29;45350;-85
2021/08/01 06:01:13;;;;;;;;;3.00;3.00;;;;;17.71;58.78;100887.13;4792124;29;45391;-84
2021/08/01 06:03:39;;;;;;;;;4.33;2.67;;;;;17.69;59.13;100889.81;4809910;29;46767;-85
2021/08/01 06:06:11;;;;;;;;;5.00;4.00;;;;;17.70;59.08;100898.66;4804124;29;44853;-84
2021/08/01 06:08:36;;;;;;;;;6.00;2.67;;;;;17.59;59.45;100881.03;4810413;29;45587;-85
2021/08/01 06:11:04;;;;;;;;;2.33;2.33;;;;;17.68;59.08;100895.13;4800483;29;45439;-85
2021/08/01 06:13:30;;;;;;;;;5.00;4.00;;;;;17.63;59.12;100891.63;4797947;29;45340;-85
2021/08/01 06:15:55;;;;;;;;;5.33;4.00;;;;;17.64;59.09;100894.25;4789547;29;45461;-85
2021/08/01 06:18:21;;;;;;;;;3.33;3.33;;;;;17.66;59.37;100903.09;4788743;29;45354;-85
2021/08/01 06:20:46;;;;;;;;;3.00;2.00;;;;;17.64;59.42;100894.25;4787518;29;45444;-85
2021/08/01 06:23:11;;;;;;;;;7.00;4.00;;;;;17.62;59.33;100900.53;4791341;29;45427;-85
2021/08/01 06:25:38;;;;;;;;;5.00;2.33;;;;;17.62;59.63;100906.69;4791486;29;45357;-85
2021/08/01 06:28:04;;;;;;;;;3.00;3.00;;;;;17.61;59.67;100907.59;4791764;29;45447;-85
2021/08/01 06:30:30;;;;;;;;;4.67;2.67;;;;;17.62;59.50;100912.00;4791517;29;45288;-84
2021/08/01 06:32:55;;;;;;;;;3.00;3.00;;;;;17.65;59.53;100909.34;4791216;29;45345;-85
2021/08/01 06:35:21;;;;;;;;;3.33;3.00;;;;;17.65;59.83;100906.69;4791398;29;45341;-85
2021/08/01 06:37:46;;;;;;;;;3.00;3.00;;;;;17.67;59.71;100907.53;4775012;29;45446;-84
2021/08/01 06:40:11;;;;;;;;;3.00;2.00;;;;;17.71;59.76;100917.25;4791631;29;45423;-85
2021/08/01 06:42:37;;;;;;;;;3.00;2.67;;;;;17.67;59.87;100907.53;4791279;29;46249;-84
2021/08/01 06:45:03;;;;;;;;;5.00;3.00;;;;;17.74;59.67;100915.47;4791315;29;45354;-85
2021/08/01 06:47:28;;;;;;;;;7.00;4.00;;;;;17.76;59.52;100922.53;4791177;29;45425;-85
2021/08/01 06:49:53;;;;;;;;;2.00;2.00;;;;;17.76;59.63;100913.66;4791116;29;45418;-85
2021/08/01 06:52:19;;;;;;;;;3.33;2.33;;;;;17.77;59.86;100920.72;4791291;29;46187;-84
2021/08/01 06:54:44;;;;;;;;;4.00;3.00;;;;;17.76;59.55;100908.34;4791106;29;45432;-84
2021/08/01 06:57:09;;;;;;;;;4.00;2.00;;;;;17.76;59.90;100905.69;4791153;29;45399;-84
2021/08/01 06:59:35;;;;;;;;;3.67;3.00;;;;;17.79;59.64;100913.63;4791357;29;45371;-84
2021/08/01 07:02:00;;;;;;;;;2.67;2.33;;;;;17.79;59.63;100916.28;4790819;29;46010;-84
2021/08/01 07:04:26;;;;;;;;;3.67;2.00;;;;;17.83;59.43;100915.34;4790952;29;45326;-84
2021/08/01 07:06:51;;;;;;;;;3.00;1.67;;;;;17.86;59.06;100923.31;4791190;29;45406;-84
2021/08/01 07:09:17;;;;;;;;;5.00;2.00;;;;;17.89;59.08;100920.63;4791222;29;45183;-85
2021/08/01 07:11:42;;;;;;;;;7.67;2.33;;;;;17.90;59.20;100919.72;4790819;29;45359;-84
2021/08/01 07:14:07;;;;;;;;;2.67;1.67;;;;;17.92;59.14;100912.63;4790805;29;45305;-85
2021/08/01 07:16:33;;;;;;;;;2.00;2.00;;;;;17.95;59.07;100919.69;4790919;29;45381;-85
2021/08/01 07:18:58;;;;;;;;;2.00;2.00;;;;;17.99;59.15;100926.75;4791205;29;45256;-85
2021/08/01 07:21:23;;;;;;;;;3.00;2.00;;;;;18.02;59.03;100926.69;4791019;29;46435;-86
2021/08/01 07:23:49;;;;;;;;;3.00;2.00;;;;;18.06;58.57;100927.56;4790725;29;45409;-85
2021/08/01 07:26:14;;;;;;;;;2.67;2.67;;;;;18.08;58.60;100932.84;4790866;29;45059;-85
2021/08/01 07:28:39;;;;;;;;;2.67;2.00;;;;;18.06;58.54;100927.56;4790853;29;45278;-85
2021/08/01 07:31:05;;;;;;;;;3.33;3.00;;;;;18.09;58.48;100921.31;4790528;29;46190;-86
2021/08/01 07:33:30;;;;;;;;;3.67;3.67;;;;;18.21;58.66;100946.94;4790135;29;45263;-85
2021/08/01 07:35:57;;;;;;;;;4.00;3.00;;;;;18.25;58.34;100949.53;4790362;29;45471;-85
2021/08/01 07:38:24;;;;;;;;;5.00;2.00;;;;;18.29;58.25;100942.41;4790314;29;45566;-84
2021/08/01 07:40:50;;;;;;;;;2.00;2.00;;;;;18.33;58.02;100946.81;4789010;29;46250;-86
2021/08/01 07:43:15;;;;;;;;;2.00;2.00;;;;;18.36;57.86;100936.09;4790416;29;45413;-86
2021/08/01 07:45:40;;;;;;;;;3.67;1.67;;;;;18.44;58.08;100945.78;4790408;29;45410;-85
2021/08/01 07:48:06;;;;;;;;;3.00;2.00;;;;;18.44;58.43;100941.34;4790470;29;45307;-85
2021/08/01 07:50:32;;;;;;;;;2.00;2.00;;;;;18.52;58.50;100947.47;4790142;29;45643;-85
2021/08/01 07:52:57;;;;;;;;;3.33;1.67;;;;;18.61;58.99;100957.09;4790281;29;45426;-85
2021/08/01 07:55:22;;;;;;;;;1.67;1.67;;;;;18.71;58.25;100954.31;4790454;29;45782;-85
2021/08/01 07:57:50;;;;;;;;;3.33;3.33;;;;;18.76;58.00;100949.84;4790589;29;45484;-85
2021/08/01 08:00:16;;;;;;;;;1.67;1.33;;;;;18.91;57.69;100945.19;4790105;29;47283;-84
2021/08/01 08:02:42;;;;;;;;;2.67;1.67;;;;;18.98;57.51;100939.75;4774078;29;45765;-85
2021/08/01 08:05:08;;;;;;;;;2.00;2.00;;;;;19.09;57.70;100950.25;4789909;29;45373;-85
2021/08/01 08:07:33;;;;;;;;;1.67;1.67;;;;;19.14;56.84;100942.16;4773866;29;45332;-85
2021/08/01 08:09:59;;;;;;;;;2.67;1.00;;;;;19.21;55.87;100949.22;4789884;29;46276;-85
2021/08/01 08:12:24;;;;;;;;;1.33;1.33;;;;;19.30;56.00;100961.53;4789912;29;45534;-84
2021/08/01 08:14:51;;;;;;;;;0.67;0.67;;;;;19.35;55.12;100952.56;4790231;29;45331;-85
2021/08/01 08:17:16;;;;;;;;;1.00;1.00;;;;;19.48;54.58;100956.78;4790307;29;45455;-84
2021/08/01 08:19:42;;;;;;;;;0.00;0.00;;;;;19.60;54.34;100965.50;4789892;29;45389;-84
2021/08/01 08:22:09;;;;;;;;;4.00;2.00;;;;;19.69;54.16;100967.13;4789936;29;45372;-84
2021/08/01 08:24:36;;;;;;;;;4.00;1.67;;;;;19.76;53.78;100966.09;4790088;29;45539;-86
2021/08/01 08:27:01;;;;;;;;;2.33;1.00;;;;;19.85;53.54;100978.41;4790172;29;45279;-84
2021/08/01 08:29:27;;;;;;;;;3.00;1.00;;;;;19.94;53.11;100967.59;4789582;29;45438;-85
2021/08/01 08:31:54;;;;;;;;;3.00;1.00;;;;;20.02;52.75;100964.78;4789815;29;45421;-84
2021/08/01 08:34:21;;;;;;;;;1.00;1.00;;;;;20.19;52.98;100959.16;4789939;29;45334;-85
2021/08/01 08:36:49;;;;;;;;;1.00;1.00;;;;;20.58;52.32;100958.38;4789894;29;45362;-84
2021/08/01 08:39:18;;;;;;;;;2.00;1.00;;;;;20.89;51.50;100969.31;4772863;29;46520;-84
2021/08/01 08:41:44;;;;;;;;;1.00;1.00;;;;;21.16;51.12;100966.97;4789415;29;45457;-85
2021/08/01 08:44:09;;;;;;;;;3.00;1.33;;;;;21.24;51.01;100945.38;4773125;29;45420;-85
2021/08/01 08:46:37;;;;;;;;;3.33;1.00;;;;;21.59;50.40;100962.38;4789094;29;45351;-85
2021/08/01 08:49:10;;;;;;;;;1.33;1.33;;;;;21.90;49.90;100970.53;4789255;29;47605;-85
2021/08/01 08:51:38;;;;;;;;;3.00;2.00;;;;;22.14;49.95;100966.34;4787963;29;45412;-86
2021/08/01 08:54:12;;;;;;;;;2.00;2.00;;;;;22.53;50.40;100962.56;4789748;29;45349;-86
2021/08/01 08:56:39;;;;;;;;;1.00;1.00;;;;;22.95;49.21;100964.97;4788513;29;45374;-86
2021/08/01 08:59:06;;;;;;;;;4.67;1.67;;;;;23.28;48.34;100956.75;4789398;29;46189;-86
2021/08/01 09:01:31;;;;;;;;;3.00;3.00;;;;;23.56;47.44;100971.09;4790134;29;45422;-86
2021/08/01 09:03:57;;;;;;;;;0.67;0.67;;;;;23.78;47.87;100970.34;4790721;29;45381;-86
2021/08/01 09:06:23;;;;;;;;;1.33;1.00;;;;;24.07;46.46;100957.69;4791222;29;45342;-85
2021/08/01 09:08:48;;;;;;;;;2.00;2.00;;;;;24.51;46.37;100966.91;4774244;29;48404;-87
2021/08/01 09:11:14;;;;;;;;;4.00;2.00;;;;;24.75;45.63;100951.66;4790031;29;45457;-86
2021/08/01 09:13:48;;;;;;;;;2.00;1.00;;;;;25.10;43.80;100966.47;4790150;29;45785;-86
2021/08/01 09:16:14;;;;;;;;;1.00;1.00;;;;;25.49;44.25;100972.09;4789864;29;45397;-85
2021/08/01 09:18:41;;;;;;;;;1.00;1.00;;;;;25.83;43.41;100970.66;4789154;29;46531;-87
2021/08/01 09:21:06;;;;;;;;;0.00;0.00;;;;;26.04;42.73;100972.50;4789302;29;45415;-86
2021/08/01 09:23:34;;;;;;;;;1.00;1.00;;;;;26.28;42.08;100969.63;4789181;29;45475;-86
2021/08/01 09:26:02;;;;;;;;;2.00;0.67;;;;;26.60;42.82;100978.09;4789462;29;45339;-86
2021/08/01 09:28:28;;;;;;;;;2.33;1.00;;;;;26.87;42.04;100971.47;4788881;29;45968;-86
2021/08/01 09:31:00;;;;;;;;;2.00;1.00;;;;;26.90;40.63;100988.41;4772625;29;45864;-86
2021/08/01 09:33:36;;;;;;;;;1.00;1.00;;;;;26.76;40.80;100990.88;4789329;29;45287;-86
2021/08/01 09:36:19;;;;;;;;;3.00;1.00;;;;;26.48;39.90;100977.72;4790099;29;45412;-87
2021/08/01 09:38:45;;;;;;;;;1.00;1.00;;;;;26.40;40.29;100979.88;4789837;29;45629;-86
2021/08/01 09:41:11;;;;;;;;;2.00;1.00;;;;;26.45;40.66;100980.56;4772743;29;45356;-87
2021/08/01 09:43:52;;;;;;;;;0.00;0.00;;;;;26.53;40.33;100971.25;4788995;29;45349;-86
2021/08/01 09:46:18;;;;;;;;;0.00;0.00;;;;;26.71;40.12;100981.16;4789326;29;45396;-86
2021/08/01 09:48:44;;;;;;;;;0.67;0.67;;;;;26.96;39.51;100972.84;4788967;29;45346;-86
2021/08/01 09:51:11;;;;;;;;;1.00;1.00;;;;;27.05;39.21;100980.50;4789058;29;45367;-86
2021/08/01 09:53:39;;;;;;;;;1.00;1.00;;;;;27.30;39.59;100979.34;4789056;29;45695;-86
2021/08/01 09:56:10;;;;;;;;;1.00;1.00;;;;;27.64;39.58;100980.31;4789342;29;45483;-87
2021/08/01 09:58:36;;;;;;;;;2.00;1.00;;;;;27.96;39.31;100978.78;4792214;29;46591;-87
2021/08/01 10:01:02;;;;;;;;;2.00;2.00;;;;;28.23;38.60;100972.84;4775386;29;45460;-86
2021/08/01 10:03:44;;;;;;;;;2.33;1.00;;;;;28.54;37.73;100975.72;4792017;29;45409;-86
2021/08/01 10:06:23;;;;;;;;;2.00;1.00;;;;;28.84;37.68;100972.28;4792347;29;45347;-87
2021/08/01 10:08:50;;;;;;;;;1.00;1.00;;;;;29.01;36.66;100974.03;4791905;29;45505;-86
2021/08/01 10:11:20;;;;;;;;;3.00;1.00;;;;;29.18;37.05;100968.63;4791692;29;45435;-87
2021/08/01 10:13:48;;;;;;;;;2.33;1.00;;;;;29.39;36.08;100962.91;4791771;29;45316;-86
2021/08/01 10:16:14;;;;;;;;;0.00;0.00;;;;;29.44;35.20;100958.09;4775442;29;45766;-86
2021/08/01 10:18:41;;;;;;;;;0.33;0.33;;;;;29.40;34.96;100973.63;4791652;29;45645;-86
2021/08/01 10:21:08;;;;;;;;;0.00;0.00;;;;;29.49;34.94;100966.81;4792091;29;45464;-87
2021/08/01 10:23:38;;;;;;;;;0.67;0.67;;;;;29.64;35.24;100966.84;4791778;29;45500;-87
2021/08/01 10:26:05;;;;;;;;;0.00;0.00;;;;;29.82;34.43;100959.50;4792233;29;45282;-86
2021/08/01 10:28:32;;;;;;;;;1.67;0.67;;;;;30.05;35.20;100959.91;4791433;29;47574;-87
2021/08/01 10:31:02;;;;;;;;;0.33;0.00;;;;;30.19;34.27;100952.75;4792228;29;45370;-86
2021/08/01 10:33:35;;;;;;;;;0.33;0.00;;;;;30.43;33.75;100960.34;4792703;29;45335;-87
2021/08/01 10:36:04;;;;;;;;;0.00;0.00;;;;;30.56;33.58;100957.72;4791950;29;45206;-87
2021/08/01 10:38:35;;;;;;;;;1.67;0.00;;;;;30.69;33.03;100949.66;4790903;29;45427;-87
2021/08/01 10:41:01;;;;;;;;;1.00;1.00;;;;;30.43;32.56;100942.25;4791504;29;45231;-87
2021/08/01 10:43:29;;;;;;;;;1.00;1.00;;;;;30.23;32.76;100954.28;4791474;29;45516;-87
2021/08/01 10:45:57;;;;;;;;;0.33;0.00;;;;;30.26;33.33;100949.56;4791564;29;45408;-87
2021/08/01 10:48:25;;;;;;;;;1.00;0.00;;;;;30.50;32.91;100951.69;4791428;29;45379;-86
2021/08/01 10:50:51;;;;;;;;;1.67;0.00;;;;;30.71;32.80;100958.56;4791270;29;45243;-87
2021/08/01 10:53:28;;;;;;;;;0.00;0.00;;;;;30.84;32.74;100954.06;4791645;29;45518;-87
2021/08/01 10:56:05;;;;;;;;;1.67;1.00;;;;;30.84;31.85;100954.06;4775016;29;45515;-87
2021/08/01 10:58:35;;;;;;;;;2.00;1.00;;;;;30.78;31.73;100959.91;4791791;29;45409;-87
2021/08/01 11:01:03;;;;;;;;;2.00;1.00;;;;;30.78;31.77;100951.75;4792090;29;45245;-86
2021/08/01 11:03:30;;;;;;;;;0.67;0.00;;;;;30.62;31.39;100939.22;4794259;29;45322;-87
2021/08/01 11:05:57;;;;;;;;;2.67;1.00;;;;;30.27;31.68;100950.41;4807713;29;44877;-86
2021/08/01 11:08:23;;;;;;;;;0.00;0.00;;;;;29.90;31.33;100949.06;4812592;29;46244;-87
2021/08/01 11:11:15;;;;;;;;;0.00;0.00;;;;;29.52;31.35;100944.09;4813316;29;45404;-86
2021/08/01 11:13:48;;;;;;;;;0.33;0.00;;;;;29.41;31.82;100929.38;4801076;29;45454;-86
2021/08/01 11:16:44;;;;;;;;;0.00;0.00;;;;;29.30;32.14;100927.31;4791319;29;45378;-86
2021/08/01 11:19:32;;;;;;;;;0.00;0.00;;;;;29.43;32.32;100940.09;4719396;30;46304;-86
2021/08/01 11:21:58;;;;;;;;;0.33;0.00;;;;;29.57;32.15;100933.88;4717138;30;45368;-86
2021/08/01 11:24:23;;;;;;;;;0.00;0.00;;;;;29.57;32.19;100917.63;4717811;30;45467;-87
2021/08/01 11:27:03;;;;;;;;;1.00;1.00;;;;;29.42;31.44;100928.41;4717924;30;45399;-87